createdAt,value
2016-11-13T00:00:21.214Z,99.99
2016-11-13T00:01:21.232Z,99.99
2016-11-13T00:02:21.254Z,99.99
2016-11-13T00:03:21.215Z,99.99
2016-11-13T00:04:21.233Z,99.99
2016-11-13T00:05:21.209Z,99.99
2016-11-13T00:06:22.280Z,99.99
2016-11-13T00:07:21.237Z,99.99
2016-11-13T00:08:21.342Z,99.99
2016-11-13T00:09:21.238Z,99.99
2016-11-13T00:10:22.085Z,99.99
2016-11-13T00:11:21.336Z,99.99
2016-11-13T00:12:21.334Z,99.99
2016-11-13T00:13:21.353Z,99.99
2016-11-13T00:14:21.246Z,99.99
2016-11-13T00:15:21.253Z,99.99
2016-11-13T00:16:21.263Z,99.99
2016-11-13T00:17:22.208Z,99.99
2016-11-13T00:18:21.401Z,99.99
2016-11-13T00:19:21.382Z,99.99
2016-11-13T00:20:21.624Z,99.99
2016-11-13T00:21:21.232Z,99.99
2016-11-13T00:22:21.738Z,99.99
2016-11-13T00:23:21.256Z,99.99
2016-11-13T00:24:21.238Z,99.99
2016-11-13T00:25:21.893Z,99.99
2016-11-13T00:26:21.225Z,99.99
2016-11-13T00:27:21.246Z,99.99
2016-11-13T00:28:21.255Z,99.99
2016-11-13T00:29:21.245Z,99.99
2016-11-13T00:30:21.224Z,99.99
2016-11-13T00:31:21.234Z,99.99
2016-11-13T00:32:21.256Z,99.99
2016-11-13T00:33:21.237Z,99.99
2016-11-13T00:34:21.251Z,99.99
2016-11-13T00:35:21.264Z,99.99
2016-11-13T00:36:21.292Z,99.99
2016-11-13T00:37:21.285Z,99.99
2016-11-13T00:38:21.248Z,99.99
2016-11-13T00:39:21.254Z,99.99
2016-11-13T00:40:21.259Z,99.99
2016-11-13T00:41:21.281Z,99.99
2016-11-13T00:42:21.269Z,99.99
2016-11-13T00:43:21.295Z,99.99
2016-11-13T00:44:21.244Z,99.99
2016-11-13T00:45:21.290Z,99.99
2016-11-13T00:46:21.330Z,99.99
2016-11-13T00:47:21.264Z,99.99
2016-11-13T00:48:21.256Z,99.99
2016-11-13T00:49:21.241Z,99.99
2016-11-13T00:50:21.260Z,99.99
2016-11-13T00:51:21.262Z,99.99
2016-11-13T00:52:21.283Z,99.99
2016-11-13T00:53:21.260Z,99.99
2016-11-13T00:54:21.353Z,99.99
2016-11-13T00:55:21.260Z,99.99
2016-11-13T00:56:21.285Z,99.99
2016-11-13T00:57:21.283Z,99.99
2016-11-13T00:58:21.263Z,99.99
2016-11-13T00:59:21.264Z,99.99
2016-11-13T01:00:21.272Z,99.99
2016-11-13T01:01:21.261Z,99.99
2016-11-13T01:02:21.267Z,99.99
2016-11-13T01:03:21.245Z,99.99
2016-11-13T01:04:21.299Z,99.99
2016-11-13T01:05:21.276Z,99.99
2016-11-13T01:06:21.266Z,99.99
2016-11-13T01:07:21.285Z,99.99
2016-11-13T01:08:21.263Z,99.99
2016-11-13T01:09:21.264Z,99.99
2016-11-13T01:10:21.274Z,99.99
2016-11-13T01:11:21.388Z,99.99
2016-11-13T01:12:21.283Z,99.99
2016-11-13T01:13:21.270Z,99.99
2016-11-13T01:14:21.429Z,99.99
2016-11-13T01:15:21.260Z,99.99
2016-11-13T01:16:21.282Z,99.99
2016-11-13T01:17:21.286Z,99.99
2016-11-13T01:18:21.284Z,99.99
2016-11-13T01:19:21.272Z,99.99
2016-11-13T01:20:21.291Z,99.99
2016-11-13T01:21:21.416Z,99.99
2016-11-13T01:22:21.304Z,99.99
2016-11-13T01:23:21.275Z,99.99
2016-11-13T01:24:21.282Z,99.99
2016-11-13T01:25:21.310Z,99.99
2016-11-13T01:26:21.313Z,99.99
2016-11-13T01:27:21.291Z,99.99
2016-11-13T01:28:21.283Z,99.99
2016-11-13T01:29:21.264Z,99.99
2016-11-13T01:30:21.276Z,99.99
2016-11-13T01:31:21.275Z,99.99
2016-11-13T01:32:21.288Z,99.99
2016-11-13T01:33:21.274Z,99.99
2016-11-13T01:34:21.309Z,99.99
2016-11-13T01:35:21.287Z,99.99
2016-11-13T01:36:21.302Z,99.99
2016-11-13T01:37:21.305Z,99.99
2016-11-13T01:38:21.338Z,99.99
2016-11-13T01:39:21.298Z,99.99
2016-11-13T01:40:21.292Z,99.99
2016-11-13T01:41:21.292Z,99.99
2016-11-13T01:42:21.350Z,99.99
2016-11-13T01:43:21.650Z,99.99
2016-11-13T01:44:21.291Z,99.99
2016-11-13T01:45:21.331Z,99.99
2016-11-13T01:46:21.310Z,99.99
2016-11-13T01:47:21.308Z,99.99
2016-11-13T01:48:21.307Z,99.99
2016-11-13T01:49:21.289Z,99.99
2016-11-13T01:50:21.535Z,99.99
2016-11-13T01:51:21.298Z,99.99
2016-11-13T01:52:21.279Z,99.99
2016-11-13T01:53:21.296Z,99.99
2016-11-13T01:54:21.271Z,99.99
2016-11-13T01:55:21.291Z,99.99
2016-11-13T01:56:21.301Z,99.99
2016-11-13T01:57:21.280Z,99.99
2016-11-13T01:58:21.296Z,99.99
2016-11-13T01:59:21.284Z,99.99
2016-11-13T02:00:21.303Z,99.99
2016-11-13T02:01:21.631Z,99.99
2016-11-13T02:02:21.302Z,99.99
2016-11-13T02:03:21.322Z,99.99
2016-11-13T02:04:21.313Z,99.99
2016-11-13T02:05:21.320Z,99.99
2016-11-13T02:06:21.307Z,99.99
2016-11-13T02:07:21.318Z,99.99
2016-11-13T02:08:21.370Z,99.99
2016-11-13T02:09:21.311Z,99.99
2016-11-13T02:10:21.309Z,99.99
2016-11-13T02:11:21.318Z,99.99
2016-11-13T02:12:21.324Z,99.99
2016-11-13T02:13:21.315Z,99.99
2016-11-13T02:14:21.315Z,99.99
2016-11-13T02:15:21.324Z,99.99
2016-11-13T02:16:21.296Z,99.99
2016-11-13T02:17:21.322Z,99.99
2016-11-13T02:18:21.323Z,99.99
2016-11-13T02:19:21.291Z,99.99
2016-11-13T02:20:21.307Z,99.99
2016-11-13T02:21:21.331Z,99.99
2016-11-13T02:22:21.296Z,99.99
2016-11-13T02:23:21.323Z,99.99
2016-11-13T02:24:21.283Z,99.99
2016-11-13T02:25:21.307Z,99.99
2016-11-13T02:26:21.311Z,99.99
2016-11-13T02:27:21.310Z,99.99
2016-11-13T02:28:21.566Z,99.99
2016-11-13T02:29:21.299Z,99.99
2016-11-13T02:30:21.320Z,99.99
2016-11-13T02:31:21.321Z,99.99
2016-11-13T02:32:21.321Z,99.99
2016-11-13T02:33:21.406Z,99.99
2016-11-13T02:34:21.361Z,99.99
2016-11-13T02:35:21.317Z,99.99
2016-11-13T02:36:21.362Z,99.99
2016-11-13T02:37:21.301Z,99.99
2016-11-13T02:38:22.333Z,99.99
2016-11-13T02:39:21.383Z,99.99
2016-11-13T02:40:21.333Z,99.99
2016-11-13T02:41:21.307Z,99.99
2016-11-13T02:42:21.311Z,99.99
2016-11-13T02:43:21.346Z,99.99
2016-11-13T02:44:21.324Z,99.99
2016-11-13T02:45:21.311Z,99.99
2016-11-13T02:46:21.326Z,99.99
2016-11-13T02:47:21.356Z,99.99
2016-11-13T02:48:21.340Z,99.99
2016-11-13T02:49:21.336Z,99.99
2016-11-13T02:50:21.315Z,99.99
2016-11-13T02:51:21.346Z,99.99
2016-11-13T02:52:21.327Z,99.99
2016-11-13T02:53:21.348Z,99.99
2016-11-13T02:54:21.323Z,99.99
2016-11-13T02:55:21.305Z,99.99
2016-11-13T02:56:21.345Z,99.99
2016-11-13T02:57:21.336Z,99.99
2016-11-13T02:58:21.328Z,99.99
2016-11-13T02:59:21.349Z,99.99
2016-11-13T03:00:21.327Z,99.99
2016-11-13T03:01:21.347Z,99.99
2016-11-13T03:02:21.343Z,99.99
2016-11-13T03:03:21.445Z,99.99
2016-11-13T03:04:21.344Z,99.99
2016-11-13T03:05:21.348Z,99.99
2016-11-13T03:06:21.339Z,99.99
2016-11-13T03:07:21.346Z,99.99
2016-11-13T03:08:21.337Z,99.99
2016-11-13T03:09:21.374Z,99.99
2016-11-13T03:10:21.336Z,99.99
2016-11-13T03:11:21.365Z,99.99
2016-11-13T03:12:21.357Z,99.99
2016-11-13T03:13:21.351Z,99.99
2016-11-13T03:14:21.348Z,99.99
2016-11-13T03:15:21.419Z,99.99
2016-11-13T03:16:21.372Z,99.99
2016-11-13T03:17:21.457Z,99.99
2016-11-13T03:18:21.339Z,99.99
2016-11-13T03:19:21.490Z,99.99
2016-11-13T03:20:21.374Z,99.99
2016-11-13T03:21:21.361Z,99.99
2016-11-13T03:22:21.350Z,99.99
2016-11-13T03:23:21.361Z,99.99
2016-11-13T03:24:21.394Z,99.99
2016-11-13T03:25:21.369Z,99.99
2016-11-13T03:26:21.377Z,99.99
2016-11-13T03:27:21.368Z,99.99
2016-11-13T03:28:21.365Z,99.99
2016-11-13T03:29:21.382Z,99.99
2016-11-13T03:30:21.366Z,99.99
2016-11-13T03:31:21.374Z,99.99
2016-11-13T03:32:21.345Z,99.99
2016-11-13T03:33:21.359Z,99.99
2016-11-13T03:34:21.365Z,99.99
2016-11-13T03:35:21.363Z,99.99
2016-11-13T03:36:21.417Z,99.99
2016-11-13T03:37:21.401Z,99.99
2016-11-13T03:38:21.358Z,99.99
2016-11-13T03:39:21.368Z,99.99
2016-11-13T03:40:21.352Z,99.99
2016-11-13T03:41:21.391Z,99.99
2016-11-13T03:42:21.403Z,99.99
2016-11-13T03:43:21.393Z,99.99
2016-11-13T03:44:21.426Z,99.99
2016-11-13T03:45:21.397Z,99.99
2016-11-13T03:46:21.404Z,99.99
2016-11-13T03:47:21.388Z,99.99
2016-11-13T03:48:21.361Z,99.99
2016-11-13T03:49:21.400Z,99.99
2016-11-13T03:50:21.356Z,99.99
2016-11-13T03:51:21.387Z,99.99
2016-11-13T03:52:21.416Z,99.99
2016-11-13T03:53:21.373Z,99.99
2016-11-13T03:54:22.213Z,99.99
2016-11-13T03:55:21.371Z,99.99
2016-11-13T03:56:21.401Z,99.99
2016-11-13T03:57:21.378Z,99.99
2016-11-13T03:58:21.384Z,99.99
2016-11-13T03:59:21.392Z,99.99
2016-11-13T04:00:21.391Z,99.99
2016-11-13T04:01:21.385Z,99.99
2016-11-13T04:02:21.369Z,99.99
2016-11-13T04:03:21.379Z,99.99
2016-11-13T04:04:21.378Z,99.99
2016-11-13T04:05:21.371Z,99.99
2016-11-13T04:06:21.378Z,99.99
2016-11-13T04:07:21.372Z,99.99
2016-11-13T04:08:21.397Z,99.99
2016-11-13T04:09:21.389Z,99.99
2016-11-13T04:10:21.375Z,99.99
2016-11-13T04:11:21.375Z,99.99
2016-11-13T04:12:21.363Z,99.99
2016-11-13T04:13:21.370Z,99.99
2016-11-13T04:14:21.410Z,99.99
2016-11-13T04:15:21.430Z,99.99
2016-11-13T04:16:21.478Z,99.99
2016-11-13T04:17:21.382Z,99.99
2016-11-13T04:18:21.382Z,99.99
2016-11-13T04:19:21.404Z,99.99
2016-11-13T04:20:21.392Z,99.99
2016-11-13T04:21:21.400Z,99.99
2016-11-13T04:22:21.385Z,99.99
2016-11-13T04:23:21.385Z,99.99
2016-11-13T04:24:21.405Z,99.99
2016-11-13T04:25:21.432Z,99.99
2016-11-13T04:26:21.413Z,99.99
2016-11-13T04:27:21.400Z,99.99
2016-11-13T04:28:21.395Z,99.99
2016-11-13T04:29:21.403Z,99.99
2016-11-13T04:30:21.398Z,99.99
2016-11-13T04:31:21.425Z,99.99
2016-11-13T04:32:21.376Z,99.99
2016-11-13T04:33:21.394Z,99.99
2016-11-13T04:34:21.416Z,99.99
2016-11-13T04:35:21.457Z,99.99
2016-11-13T04:36:22.348Z,99.99
2016-11-13T04:37:21.397Z,99.99
2016-11-13T04:38:21.416Z,99.99
2016-11-13T04:39:21.456Z,99.99
2016-11-13T04:40:21.397Z,99.99
2016-11-13T04:41:21.453Z,99.99
2016-11-13T04:42:21.409Z,99.99
2016-11-13T04:43:21.394Z,99.99
2016-11-13T04:44:21.441Z,99.99
2016-11-13T04:45:21.447Z,99.99
2016-11-13T04:46:21.462Z,99.99
2016-11-13T04:47:21.405Z,99.99
2016-11-13T04:48:21.503Z,99.99
2016-11-13T04:49:21.443Z,99.99
2016-11-13T04:50:21.407Z,99.99
2016-11-13T04:51:21.404Z,99.99
2016-11-13T04:52:21.398Z,99.99
2016-11-13T04:53:21.398Z,99.99
2016-11-13T04:54:21.418Z,99.99
2016-11-13T04:55:21.411Z,99.99
2016-11-13T04:56:21.421Z,99.99
2016-11-13T04:57:21.409Z,99.99
2016-11-13T04:58:21.415Z,99.99
2016-11-13T04:59:21.431Z,99.99
2016-11-13T05:00:21.435Z,99.99
2016-11-13T05:01:21.442Z,99.99
2016-11-13T05:02:21.429Z,99.99
2016-11-13T05:03:21.450Z,99.99
2016-11-13T05:04:21.466Z,99.99
2016-11-13T05:05:21.449Z,99.99
2016-11-13T05:06:21.423Z,99.99
2016-11-13T05:07:21.446Z,99.99
2016-11-13T05:08:21.445Z,99.99
2016-11-13T05:09:21.461Z,99.99
2016-11-13T05:10:21.471Z,99.99
2016-11-13T05:11:21.428Z,99.99
2016-11-13T05:12:21.488Z,99.99
2016-11-13T05:13:21.417Z,99.99
2016-11-13T05:14:21.429Z,99.99
2016-11-13T05:15:21.437Z,99.99
2016-11-13T05:16:21.418Z,99.99
2016-11-13T05:17:21.427Z,99.99
2016-11-13T05:18:21.432Z,99.99
2016-11-13T05:19:21.466Z,99.99
2016-11-13T05:20:21.464Z,99.99
2016-11-13T05:21:21.456Z,99.99
2016-11-13T05:22:21.432Z,99.99
2016-11-13T05:23:21.467Z,99.99
2016-11-13T05:24:21.426Z,99.99
2016-11-13T05:25:21.430Z,99.99
2016-11-13T05:26:21.430Z,99.99
2016-11-13T05:27:21.459Z,99.99
2016-11-13T05:28:21.443Z,99.99
2016-11-13T05:29:21.449Z,99.99
2016-11-13T05:30:21.456Z,99.99
2016-11-13T05:31:21.446Z,99.99
2016-11-13T05:32:21.453Z,99.99
2016-11-13T05:33:21.438Z,99.99
2016-11-13T05:34:21.439Z,99.99
2016-11-13T05:35:21.458Z,99.99
2016-11-13T05:36:21.503Z,99.99
2016-11-13T05:37:21.439Z,99.99
2016-11-13T05:38:21.487Z,99.99
2016-11-13T05:39:21.464Z,99.99
2016-11-13T05:40:21.465Z,99.99
2016-11-13T05:41:21.466Z,99.99
2016-11-13T05:42:21.490Z,99.99
2016-11-13T05:43:21.436Z,99.99
2016-11-13T05:44:21.446Z,99.99
2016-11-13T05:45:21.443Z,99.99
2016-11-13T05:46:21.466Z,99.99
2016-11-13T05:47:21.455Z,99.99
2016-11-13T05:48:21.480Z,99.99
2016-11-13T05:49:21.439Z,99.99
2016-11-13T05:50:21.434Z,99.99
2016-11-13T05:51:21.498Z,99.99
2016-11-13T05:52:21.446Z,99.99
2016-11-13T05:53:21.431Z,99.99
2016-11-13T05:54:21.428Z,99.99
2016-11-13T05:55:21.420Z,99.99
2016-11-13T05:56:21.457Z,99.99
2016-11-13T05:57:21.444Z,99.99
2016-11-13T05:58:21.458Z,99.99
2016-11-13T05:59:21.446Z,99.99
2016-11-13T06:00:21.504Z,99.99
2016-11-13T06:01:21.456Z,99.99
2016-11-13T06:02:21.495Z,99.99
2016-11-13T06:03:21.473Z,99.99
2016-11-13T06:04:21.448Z,99.99
2016-11-13T06:05:21.441Z,99.99
2016-11-13T06:06:21.481Z,99.99
2016-11-13T06:07:21.500Z,99.99
2016-11-13T06:08:21.525Z,99.99
2016-11-13T06:09:21.500Z,99.99
2016-11-13T06:10:21.465Z,99.99
2016-11-13T06:11:21.466Z,99.99
2016-11-13T06:12:21.476Z,99.99
2016-11-13T06:13:21.486Z,99.99
2016-11-13T06:14:21.459Z,99.99
2016-11-13T06:15:21.452Z,99.99
2016-11-13T06:16:21.458Z,99.99
2016-11-13T06:17:21.511Z,99.99
2016-11-13T06:18:21.448Z,99.99
2016-11-13T06:19:21.465Z,99.99
2016-11-13T06:20:21.477Z,99.99
2016-11-13T06:21:21.471Z,99.99
2016-11-13T06:22:21.475Z,99.99
2016-11-13T06:23:21.471Z,99.99
2016-11-13T06:24:21.489Z,99.99
2016-11-13T06:25:21.495Z,99.99
2016-11-13T06:26:21.477Z,99.99
2016-11-13T06:27:21.478Z,99.99
2016-11-13T06:28:21.462Z,99.99
2016-11-13T06:29:21.484Z,99.99
2016-11-13T06:30:21.510Z,99.99
2016-11-13T06:31:21.513Z,99.99
2016-11-13T06:32:21.503Z,99.99
2016-11-13T06:33:21.509Z,99.99
2016-11-13T06:34:21.472Z,99.99
2016-11-13T06:35:21.475Z,99.99
2016-11-13T06:36:21.495Z,99.99
2016-11-13T06:37:21.576Z,99.99
2016-11-13T06:38:21.460Z,99.99
2016-11-13T06:39:21.507Z,99.99
2016-11-13T06:40:21.474Z,99.99
2016-11-13T06:41:21.471Z,99.99
2016-11-13T06:42:21.484Z,99.99
2016-11-13T06:43:21.472Z,99.99
2016-11-13T06:44:21.478Z,99.99
2016-11-13T06:45:21.484Z,99.99
2016-11-13T06:46:21.494Z,99.99
2016-11-13T06:47:21.513Z,99.99
2016-11-13T06:48:21.489Z,99.99
2016-11-13T06:49:21.474Z,99.99
2016-11-13T06:50:21.517Z,99.99
2016-11-13T06:51:21.479Z,99.99
2016-11-13T06:52:21.477Z,99.99
2016-11-13T06:53:21.509Z,99.99
2016-11-13T06:54:21.487Z,99.99
2016-11-13T06:55:21.493Z,99.99
2016-11-13T06:56:21.490Z,99.99
2016-11-13T06:57:21.507Z,99.99
2016-11-13T06:58:21.514Z,99.99
2016-11-13T06:59:21.512Z,99.99
2016-11-13T07:00:21.509Z,99.99
2016-11-13T07:01:21.494Z,99.99
2016-11-13T07:02:21.500Z,99.99
2016-11-13T07:03:21.508Z,99.99
2016-11-13T07:04:21.503Z,99.99
2016-11-13T07:05:21.497Z,99.99
2016-11-13T07:06:21.485Z,99.99
2016-11-13T07:07:21.506Z,99.99
2016-11-13T07:08:21.507Z,99.99
2016-11-13T07:09:21.497Z,99.99
2016-11-13T07:10:21.501Z,99.99
2016-11-13T07:11:21.485Z,99.99
2016-11-13T07:12:21.503Z,99.99
2016-11-13T07:13:21.527Z,99.99
2016-11-13T07:14:21.490Z,99.99
2016-11-13T07:15:21.564Z,99.99
2016-11-13T07:16:21.491Z,99.99
2016-11-13T07:17:21.508Z,99.99
2016-11-13T07:18:22.028Z,99.99
2016-11-13T07:19:21.504Z,99.99
2016-11-13T07:20:21.512Z,99.99
2016-11-13T07:21:21.496Z,99.99
2016-11-13T07:22:21.498Z,99.99
2016-11-13T07:23:21.509Z,99.99
2016-11-13T07:24:21.503Z,99.99
2016-11-13T07:25:21.510Z,99.99
2016-11-13T07:26:21.503Z,99.99
2016-11-13T07:27:21.495Z,99.99
2016-11-13T07:28:21.510Z,99.99
2016-11-13T07:29:21.489Z,99.99
2016-11-13T07:30:21.493Z,99.99
2016-11-13T07:31:21.509Z,99.99
2016-11-13T07:32:21.558Z,99.99
2016-11-13T07:33:21.514Z,99.99
2016-11-13T07:34:21.498Z,99.99
2016-11-13T07:35:21.525Z,99.99
2016-11-13T07:36:21.548Z,99.99
2016-11-13T07:37:21.552Z,99.99
2016-11-13T07:38:21.562Z,99.99
2016-11-13T07:39:21.567Z,99.99
2016-11-13T07:40:21.532Z,99.99
2016-11-13T07:41:21.563Z,99.99
2016-11-13T07:42:21.544Z,99.99
2016-11-13T07:43:21.513Z,99.99
2016-11-13T07:44:21.551Z,99.99
2016-11-13T07:45:21.558Z,99.99
2016-11-13T07:46:21.536Z,99.99
2016-11-13T07:47:21.532Z,99.99
2016-11-13T07:48:21.544Z,99.99
2016-11-13T07:49:21.551Z,99.99
2016-11-13T07:50:21.523Z,99.99
2016-11-13T07:51:21.545Z,99.99
2016-11-13T07:52:21.531Z,99.99
2016-11-13T07:53:21.523Z,99.99
2016-11-13T07:54:21.567Z,99.99
2016-11-13T07:55:21.557Z,99.99
2016-11-13T07:56:21.565Z,99.99
2016-11-13T07:57:21.572Z,99.99
2016-11-13T07:58:21.564Z,99.99
2016-11-13T07:59:21.564Z,99.99
2016-11-13T08:00:21.572Z,99.99
2016-11-13T08:01:21.548Z,99.99
2016-11-13T08:02:21.564Z,99.99
2016-11-13T08:03:21.532Z,99.99
2016-11-13T08:04:21.581Z,99.99
2016-11-13T08:05:21.558Z,99.99
2016-11-13T08:06:21.521Z,99.99
2016-11-13T08:07:21.522Z,99.99
2016-11-13T08:08:21.539Z,99.99
2016-11-13T08:09:21.541Z,99.99
2016-11-13T08:10:21.520Z,99.99
2016-11-13T08:11:21.528Z,99.99
2016-11-13T08:12:21.536Z,99.99
2016-11-13T08:13:21.541Z,99.99
2016-11-13T08:14:21.590Z,99.99
2016-11-13T08:15:21.583Z,99.99
2016-11-13T08:16:21.565Z,99.99
2016-11-13T08:17:21.590Z,99.99
2016-11-13T08:18:21.564Z,99.99
2016-11-13T08:19:21.580Z,99.99
2016-11-13T08:20:21.586Z,99.99
2016-11-13T08:21:21.589Z,99.99
2016-11-13T08:22:21.548Z,99.99
2016-11-13T08:23:21.554Z,99.99
2016-11-13T08:24:21.561Z,99.99
2016-11-13T08:25:21.552Z,99.99
2016-11-13T08:26:21.574Z,99.99
2016-11-13T08:27:21.570Z,99.99
2016-11-13T08:28:21.548Z,99.99
2016-11-13T08:29:21.564Z,99.99
2016-11-13T08:30:21.550Z,99.99
2016-11-13T08:31:21.555Z,99.99
2016-11-13T08:32:21.571Z,99.99
2016-11-13T08:33:21.536Z,99.99
2016-11-13T08:34:21.605Z,99.99
2016-11-13T08:35:21.567Z,99.99
2016-11-13T08:36:21.561Z,99.99
2016-11-13T08:37:21.552Z,99.99
2016-11-13T08:38:21.548Z,99.99
2016-11-13T08:39:21.576Z,99.99
2016-11-13T08:40:21.564Z,99.99
2016-11-13T08:41:21.555Z,99.99
2016-11-13T08:42:21.593Z,99.99
2016-11-13T08:43:21.561Z,99.99
2016-11-13T08:44:21.571Z,99.99
2016-11-13T08:45:21.567Z,99.99
2016-11-13T08:46:21.542Z,99.99
2016-11-13T08:47:21.561Z,99.99
2016-11-13T08:48:21.545Z,99.99
2016-11-13T08:49:21.608Z,99.99
2016-11-13T08:50:21.564Z,99.99
2016-11-13T08:51:21.577Z,99.99
2016-11-13T08:52:22.068Z,99.99
2016-11-13T08:53:21.560Z,99.99
2016-11-13T08:54:21.575Z,99.99
2016-11-13T08:55:21.567Z,99.99
2016-11-13T08:56:21.573Z,99.99
2016-11-13T08:57:21.599Z,99.99
2016-11-13T08:58:21.583Z,99.99
2016-11-13T08:59:21.593Z,99.99
2016-11-13T09:00:21.595Z,99.99
2016-11-13T09:01:21.583Z,99.99
2016-11-13T09:02:21.587Z,99.99
2016-11-13T09:03:21.583Z,99.99
2016-11-13T09:04:21.658Z,99.99
2016-11-13T09:05:21.568Z,99.99
2016-11-13T09:06:21.585Z,99.99
2016-11-13T09:07:21.603Z,99.99
2016-11-13T09:08:21.589Z,99.99
2016-11-13T09:09:21.602Z,99.99
2016-11-13T09:10:21.568Z,99.99
2016-11-13T09:11:21.604Z,99.99
2016-11-13T09:12:21.628Z,99.99
2016-11-13T09:13:21.599Z,99.99
2016-11-13T09:14:21.600Z,99.99
2016-11-13T09:15:21.573Z,99.99
2016-11-13T09:16:21.623Z,99.99
2016-11-13T09:17:21.618Z,99.99
2016-11-13T09:18:21.602Z,99.99
2016-11-13T09:19:21.606Z,99.99
2016-11-13T09:20:21.996Z,99.99
2016-11-13T09:21:21.622Z,99.99
2016-11-13T09:22:21.635Z,99.99
2016-11-13T09:23:21.606Z,99.99
2016-11-13T09:24:21.599Z,99.99
2016-11-13T09:25:21.636Z,99.99
2016-11-13T09:26:21.581Z,99.99
2016-11-13T09:27:21.613Z,99.99
2016-11-13T09:28:21.593Z,99.99
2016-11-13T09:29:21.611Z,99.99
2016-11-13T09:30:21.586Z,99.99
2016-11-13T09:31:21.595Z,99.99
2016-11-13T09:32:21.602Z,99.99
2016-11-13T09:33:21.583Z,99.99
2016-11-13T09:34:21.595Z,99.99
2016-11-13T09:35:21.599Z,99.99
2016-11-13T09:36:21.596Z,99.99
2016-11-13T09:37:21.603Z,99.99
2016-11-13T09:38:21.586Z,99.99
2016-11-13T09:39:21.621Z,99.99
2016-11-13T09:40:21.616Z,99.99
2016-11-13T09:41:21.641Z,99.99
2016-11-13T09:42:21.616Z,99.99
2016-11-13T09:43:21.721Z,99.99
2016-11-13T09:44:21.619Z,99.99
2016-11-13T09:45:21.634Z,99.99
2016-11-13T09:46:21.605Z,99.99
2016-11-13T09:47:21.615Z,99.99
2016-11-13T09:48:21.619Z,99.99
2016-11-13T09:49:21.628Z,99.99
2016-11-13T09:50:21.599Z,99.99
2016-11-13T09:51:21.595Z,99.99
2016-11-13T09:52:21.597Z,99.77
2016-11-13T09:53:21.595Z,99.99
2016-11-13T09:54:21.611Z,99.99
2016-11-13T09:55:21.597Z,99.99
2016-11-13T09:56:21.618Z,99.99
2016-11-13T09:57:21.622Z,99.99
2016-11-13T09:58:21.610Z,99.68
2016-11-13T09:59:21.600Z,99.3
2016-11-13T10:00:21.621Z,98.92
2016-11-13T10:01:21.607Z,98.92
2016-11-13T10:02:21.609Z,99.58
2016-11-13T10:03:21.599Z,99.49
2016-11-13T10:04:21.594Z,99.87
2016-11-13T10:05:21.612Z,99.99
2016-11-13T10:06:21.610Z,99.68
2016-11-13T10:07:21.622Z,99.99
2016-11-13T10:08:21.602Z,99.99
2016-11-13T10:09:21.637Z,99.54
2016-11-13T10:10:21.635Z,99.11
2016-11-13T10:11:21.599Z,98.73
2016-11-13T10:12:21.624Z,98.54
2016-11-13T10:13:21.657Z,98.63
2016-11-13T10:14:21.659Z,99.39
2016-11-13T10:15:21.678Z,99.73
2016-11-13T10:16:21.633Z,98.54
2016-11-13T10:17:21.659Z,98.07
2016-11-13T10:18:21.655Z,97.88
2016-11-13T10:19:21.589Z,97.69
2016-11-13T10:20:21.631Z,97.59
2016-11-13T10:21:21.602Z,97.55
2016-11-13T10:22:21.610Z,96.92
2016-11-13T10:23:21.618Z,97.02
2016-11-13T10:24:21.669Z,97.21
2016-11-13T10:25:21.658Z,97.55
2016-11-13T10:26:21.737Z,98.4
2016-11-13T10:27:22.651Z,98.97
2016-11-13T10:28:21.707Z,99.26
2016-11-13T10:29:22.255Z,98.4
2016-11-13T10:30:21.751Z,98.49
2016-11-13T10:31:21.636Z,98.21
2016-11-13T10:32:21.634Z,97.55
2016-11-13T10:33:21.683Z,97.36
2016-11-13T10:34:21.692Z,97.36
2016-11-13T10:35:21.718Z,96.41
2016-11-13T10:36:21.647Z,95.27
2016-11-13T10:37:21.635Z,95.07
2016-11-13T10:38:21.671Z,95.07
2016-11-13T10:39:21.679Z,95.27
2016-11-13T10:40:21.671Z,95.36
2016-11-13T10:41:21.639Z,95.55
2016-11-13T10:42:21.646Z,94.98
2016-11-13T10:43:21.683Z,93.94
2016-11-13T10:44:21.644Z,94.23
2016-11-13T10:45:21.669Z,93.94
2016-11-13T10:46:21.658Z,94.32
2016-11-13T10:47:21.609Z,95.07
2016-11-13T10:48:21.639Z,94.32
2016-11-13T10:49:21.685Z,94.03
2016-11-13T10:50:21.643Z,93.94
2016-11-13T10:51:21.647Z,94.13
2016-11-13T10:52:21.643Z,94.6
2016-11-13T10:53:21.634Z,95.36
2016-11-13T10:54:21.774Z,95.36
2016-11-13T10:55:21.657Z,94.42
2016-11-13T10:56:21.708Z,93.37
2016-11-13T10:57:21.653Z,93.37
2016-11-13T10:58:21.667Z,93.27
2016-11-13T10:59:21.717Z,93.94
2016-11-13T11:00:21.685Z,95.46
2016-11-13T11:01:21.656Z,96.12
2016-11-13T11:02:21.658Z,95.65
2016-11-13T11:03:22.223Z,94.65
2016-11-13T11:04:21.656Z,94.65
2016-11-13T11:05:21.651Z,93.51
2016-11-13T11:06:21.653Z,93.41
2016-11-13T11:07:21.667Z,93.41
2016-11-13T11:08:21.674Z,93.32
2016-11-13T11:09:21.666Z,93.13
2016-11-13T11:10:21.757Z,92.94
2016-11-13T11:11:21.679Z,92.56
2016-11-13T11:12:21.669Z,92.33
2016-11-13T11:13:21.675Z,92.28
2016-11-13T11:14:21.672Z,92.47
2016-11-13T11:15:21.655Z,92.28
2016-11-13T11:16:21.656Z,92.8
2016-11-13T11:17:21.669Z,92.71
2016-11-13T11:18:21.653Z,93.13
2016-11-13T11:19:22.304Z,94.27
2016-11-13T11:20:21.657Z,93.8
2016-11-13T11:21:21.672Z,93.23
2016-11-13T11:22:21.662Z,92.85
2016-11-13T11:23:22.787Z,92.47
2016-11-13T11:24:21.704Z,92.47
2016-11-13T11:25:35.508Z,91.99
2016-11-13T11:26:25.596Z,91.71
2016-11-13T11:27:21.670Z,92.18
2016-11-13T11:28:21.676Z,93.04
2016-11-13T11:29:21.657Z,93.13
2016-11-13T11:30:21.684Z,92.66
2016-11-13T11:31:21.669Z,92.37
2016-11-13T11:32:21.658Z,92.66
2016-11-13T11:33:21.663Z,93.23
2016-11-13T11:34:22.246Z,93.04
2016-11-13T11:35:21.660Z,92.37
2016-11-13T11:36:21.668Z,92.66
2016-11-13T11:37:21.705Z,92.47
2016-11-13T11:38:21.667Z,92.94
2016-11-13T11:39:21.675Z,92.75
2016-11-13T11:40:21.682Z,91.61
2016-11-13T11:41:21.680Z,91.42
2016-11-13T11:42:21.686Z,91.8
2016-11-13T11:43:21.676Z,92.18
2016-11-13T11:44:21.704Z,92.18
2016-11-13T11:45:21.697Z,91.99
2016-11-13T11:46:21.687Z,92.56
2016-11-13T11:47:21.671Z,93.04
2016-11-13T11:48:26.845Z,92.85
2016-11-13T11:49:21.961Z,92.94
2016-11-13T11:50:22.450Z,93.13
2016-11-13T11:51:21.712Z,93.41
2016-11-13T11:52:21.693Z,93.51
2016-11-13T11:53:21.682Z,93.6
2016-11-13T11:54:21.714Z,92.94
2016-11-13T11:55:21.707Z,92.66
2016-11-13T11:56:21.905Z,91.61
2016-11-13T11:57:21.704Z,91.89
2016-11-13T11:58:21.728Z,92.37
2016-11-13T11:59:21.747Z,92.18
2016-11-13T12:00:21.697Z,91.99
2016-11-13T12:01:21.662Z,92.28
2016-11-13T12:02:21.681Z,92.09
2016-11-13T12:03:21.685Z,91.33
2016-11-13T12:04:22.427Z,91.71
2016-11-13T12:05:22.579Z,91.04
2016-11-13T12:06:22.139Z,91.33
2016-11-13T12:07:21.686Z,91.42
2016-11-13T12:08:21.691Z,91.42
2016-11-13T12:09:21.694Z,91.61
2016-11-13T12:10:21.690Z,94.08
2016-11-13T12:11:21.707Z,94.56
2016-11-13T12:12:21.685Z,99.4
2016-11-13T12:13:21.687Z,98.16
2016-11-13T12:14:22.256Z,96.08
2016-11-13T12:15:21.729Z,93.41
2016-11-13T12:16:21.690Z,93.23
2016-11-13T12:17:21.739Z,96.55
2016-11-13T12:18:21.760Z,96.17
2016-11-13T12:19:22.595Z,94.46
2016-11-13T12:20:21.703Z,93.6
2016-11-13T12:21:21.694Z,93.13
2016-11-13T12:22:22.017Z,94.08
2016-11-13T12:23:21.783Z,92.37
2016-11-13T12:24:21.716Z,91.8
2016-11-13T12:25:21.722Z,91.14
2016-11-13T12:26:21.716Z,91.04
2016-11-13T12:27:22.430Z,91.33
2016-11-13T12:28:22.427Z,91.04
2016-11-13T12:29:21.722Z,91.42
2016-11-13T12:30:21.719Z,91.61
2016-11-13T12:31:21.766Z,91.52
2016-11-13T12:32:21.765Z,91.71
2016-11-13T12:33:22.198Z,91.61
2016-11-13T12:34:21.720Z,91.04
2016-11-13T12:35:21.740Z,91.52
2016-11-13T12:36:21.746Z,91.8
2016-11-13T12:37:21.713Z,90.85
2016-11-13T12:38:21.695Z,91.71
2016-11-13T12:39:21.783Z,91.61
2016-11-13T12:40:21.719Z,91.04
2016-11-13T12:41:21.738Z,91.33
2016-11-13T12:42:21.747Z,91.33
2016-11-13T12:43:21.699Z,90.57
2016-11-13T12:44:22.026Z,91.8
2016-11-13T12:45:21.775Z,92.09
2016-11-13T12:46:21.756Z,92.28
2016-11-13T12:47:21.761Z,91.99
2016-11-13T12:48:22.319Z,92.75
2016-11-13T12:49:21.767Z,93.89
2016-11-13T12:50:21.832Z,94.18
2016-11-13T12:51:21.809Z,93.13
2016-11-13T12:52:21.741Z,92.94
2016-11-13T12:53:21.761Z,93.7